Time,TemperatureF,DewpointF,PressureIn,WindDirection,WindDirectionDegrees,WindSpeedMPH,WindSpeedGustMPH,Humidity,HourlyPrecipIn,Conditions,Clouds,dailyrainin,SoftwareType,DateUTC
2013-07-27 00:00:00,61.0,49.6,29.95,NNW,339,2.0,2.0,66,0.00,,,0.06,Wunderground v.1.15,2013-07-27 05:00:00,
2013-07-27 00:10:00,60.9,49.5,29.95,NNW,344,2.0,2.0,66,0.00,,,0.00,Wunderground v.1.15,2013-07-27 05:10:00,
2013-07-27 00:20:00,60.7,49.7,29.94,NNW,342,2.0,2.0,67,0.00,,,0.00,Wunderground v.1.15,2013-07-27 05:20:00,
2013-07-27 00:25:00,60.5,49.5,29.94,NNW,336,1.0,2.0,67,0.00,,,0.00,Wunderground v.1.15,2013-07-27 05:25:00,
2013-07-27 00:35:00,60.5,49.9,29.95,NNW,339,1.0,2.0,68,0.00,,,0.00,Wunderground v.1.15,2013-07-27 05:35:00,
2013-07-27 00:40:00,60.5,49.9,29.95,NNW,346,1.0,2.0,68,0.00,,,0.00,Wunderground v.1.15,2013-07-27 05:40:00,
2013-07-27 00:50:00,60.2,49.6,29.95,NNW,342,2.0,2.0,68,0.00,,,0.00,Wunderground v.1.15,2013-07-27 05:50:00,
2013-07-27 01:00:00,59.9,49.7,29.94,NNW,342,1.0,1.0,69,0.00,,,0.00,Wunderground v.1.15,2013-07-27 06:00:00,
2013-07-27 01:05:00,59.8,49.6,29.94,NNW,340,1.0,2.0,69,0.00,,,0.00,Wunderground v.1.15,2013-07-27 06:05:00,
2013-07-27 01:15:00,59.5,49.3,29.94,NNW,340,1.0,2.0,69,0.00,,,0.00,Wunderground v.1.15,2013-07-27 06:15:00,
2013-07-27 01:25:00,59.3,49.5,29.94,NNW,344,2.0,2.0,70,0.00,,,0.00,Wunderground v.1.15,2013-07-27 06:25:00,
2013-07-27 01:30:00,59.3,49.5,29.94,NNW,340,2.0,2.0,70,0.00,,,0.00,Wunderground v.1.15,2013-07-27 06:30:00,
2013-07-27 01:40:00,59.0,49.2,29.94,NNW,344,2.0,2.0,70,0.00,,,0.00,Wunderground v.1.15,2013-07-27 06:40:00,
2013-07-27 01:45:00,59.0,49.6,29.94,NNW,343,2.0,2.0,71,0.00,,,0.00,Wunderground v.1.15,2013-07-27 06:45:00,
2013-07-27 01:55:00,58.9,49.5,29.94,NW,316,2.0,2.0,71,0.00,,,0.00,Wunderground v.1.15,2013-07-27 06:55:00,
2013-07-27 02:05:00,58.4,49.0,29.95,NW,312,2.0,2.0,71,0.00,,,0.00,Wunderground v.1.15,2013-07-27 07:05:00,
2013-07-27 02:15:00,58.0,49.0,29.95,NW,312,2.0,2.0,72,0.00,,,0.00,Wunderground v.1.15,2013-07-27 07:15:00,
2013-07-27 02:20:00,57.6,48.6,29.95,NW,312,1.0,2.0,72,0.00,,,0.00,Wunderground v.1.15,2013-07-27 07:20:00,
2013-07-27 02:30:00,57.3,48.3,29.95,NW,306,2.0,2.0,72,0.00,,,0.00,Wunderground v.1.15,2013-07-27 07:30:00,
2013-07-27 02:35:00,57.3,48.3,29.95,NW,306,2.0,2.0,72,0.00,,,0.00,Wunderground v.1.15,2013-07-27 07:35:00,
2013-07-27 02:45:00,57.3,48.7,29.94,NW,313,2.0,2.0,73,0.00,,,0.00,Wunderground v.1.15,2013-07-27 07:45:00,
2013-07-27 02:55:00,57.3,48.7,29.94,NW,312,1.0,1.0,73,0.00,,,0.00,Wunderground v.1.15,2013-07-27 07:55:00,
2013-07-27 03:05:00,57.3,48.7,29.94,NW,312,0.0,1.0,73,0.00,,,0.00,Wunderground v.1.15,2013-07-27 08:05:00,
2013-07-27 03:10:00,57.3,48.7,29.94,NW,312,0.0,0.0,73,0.00,,,0.00,Wunderground v.1.15,2013-07-27 08:10:00,
2013-07-27 03:20:00,57.2,49.0,29.94,NW,312,0.0,0.0,74,0.00,,,0.00,Wunderground v.1.15,2013-07-27 08:20:00,
2013-07-27 03:30:00,56.9,48.7,29.94,NW,313,1.0,1.0,74,0.00,,,0.00,Wunderground v.1.15,2013-07-27 08:30:00,
2013-07-27 03:40:00,56.7,48.9,29.94,NW,313,1.0,1.0,75,0.00,,,0.00,Wunderground v.1.15,2013-07-27 08:40:00,
2013-07-27 03:50:00,56.5,48.7,29.94,NW,312,1.0,2.0,75,0.00,,,0.00,Wunderground v.1.15,2013-07-27 08:50:00,
2013-07-27 04:00:00,56.3,48.5,29.93,NW,311,1.0,1.0,75,0.00,,,0.00,Wunderground v.1.15,2013-07-27 09:00:00,
2013-07-27 04:05:00,56.3,48.5,29.93,NW,313,1.0,2.0,75,0.00,,,0.00,Wunderground v.1.15,2013-07-27 09:05:00,
2013-07-27 04:15:00,56.2,48.4,29.93,NW,313,0.0,2.0,75,0.00,,,0.00,Wunderground v.1.15,2013-07-27 09:15:00,
2013-07-27 04:25:00,56.3,48.8,29.93,NW,315,1.0,2.0,76,0.00,,,0.00,Wunderground v.1.15,2013-07-27 09:25:00,
2013-07-27 04:30:00,56.2,48.7,29.93,NW,316,1.0,2.0,76,0.00,,,0.00,Wunderground v.1.15,2013-07-27 09:30:00,
2013-07-27 04:40:00,56.2,48.7,29.93,NW,323,2.0,2.0,76,0.00,,,0.00,Wunderground v.1.15,2013-07-27 09:40:00,
2013-07-27 04:50:00,55.9,48.4,29.93,NW,319,2.0,2.0,76,0.00,,,0.00,Wunderground v.1.15,2013-07-27 09:50:00,
2013-07-27 05:00:00,55.7,48.2,29.94,NNW,328,1.0,1.0,76,0.00,,,0.00,Wunderground v.1.15,2013-07-27 10:00:00,
2013-07-27 05:05:00,55.6,48.5,29.94,NNW,342,1.0,2.0,77,0.00,,,0.00,Wunderground v.1.15,2013-07-27 10:05:00,
2013-07-27 05:15:00,55.4,48.3,29.94,NNW,344,2.0,2.0,77,0.00,,,0.00,Wunderground v.1.15,2013-07-27 10:15:00,
2013-07-27 05:25:00,55.3,48.2,29.94,NW,306,2.0,2.0,77,0.00,,,0.00,Wunderground v.1.15,2013-07-27 10:25:00,
2013-07-27 05:35:00,55.3,48.2,29.95,NW,313,3.0,4.0,77,0.00,,,0.00,Wunderground v.1.15,2013-07-27 10:35:00,
2013-07-27 05:45:00,55.1,48.4,29.96,NW,309,2.0,2.0,78,0.00,,,0.00,Wunderground v.1.15,2013-07-27 10:45:00,
2013-07-27 05:50:00,55.1,48.4,29.96,NW,306,2.0,2.0,78,0.00,,,0.00,Wunderground v.1.15,2013-07-27 10:50:00,
2013-07-27 06:00:00,55.1,48.4,29.95,NW,315,1.0,1.0,78,0.00,,,0.00,Wunderground v.1.15,2013-07-27 11:00:00,
2013-07-27 06:10:00,55.1,48.4,29.95,NW,305,1.0,2.0,78,0.00,,,0.00,Wunderground v.1.15,2013-07-27 11:10:00,
2013-07-27 06:15:00,55.0,48.3,29.96,WNW,294,2.0,2.0,78,0.00,,,0.00,Wunderground v.1.15,2013-07-27 11:15:00,
2013-07-27 06:25:00,54.7,48.3,29.96,WNW,301,2.0,2.0,79,0.00,,,0.00,Wunderground v.1.15,2013-07-27 11:25:00,
2013-07-27 06:35:00,54.8,48.4,29.96,NW,306,2.0,2.0,79,0.00,,,0.00,Wunderground v.1.15,2013-07-27 11:35:00,
2013-07-27 06:40:00,55.0,48.6,29.96,NW,309,2.0,2.0,79,0.00,,,0.00,Wunderground v.1.15,2013-07-27 11:40:00,
2013-07-27 06:50:00,55.4,49.0,29.97,NW,309,2.0,2.0,79,0.00,,,0.00,Wunderground v.1.15,2013-07-27 11:50:00,
2013-07-27 07:00:00,55.9,49.5,29.96,North,350,2.0,2.0,79,0.00,,,0.00,Wunderground v.1.15,2013-07-27 12:00:00,
2013-07-27 07:10:00,56.3,50.2,29.96,NNW,344,2.0,2.0,80,0.00,,,0.00,Wunderground v.1.15,2013-07-27 12:10:00,
2013-07-27 07:20:00,56.9,50.8,29.97,NNW,340,2.0,2.0,80,0.00,,,0.00,Wunderground v.1.15,2013-07-27 12:20:00,
2013-07-27 07:30:00,57.3,51.2,29.97,NNW,330,1.0,1.0,80,0.00,,,0.00,Wunderground v.1.15,2013-07-27 12:30:00,
2013-07-27 07:40:00,57.5,51.4,29.97,NNW,344,1.0,1.0,80,0.00,,,0.00,Wunderground v.1.15,2013-07-27 12:40:00,
2013-07-27 07:45:00,57.5,51.7,29.98,NNW,330,1.0,2.0,81,0.00,,,0.00,Wunderground v.1.15,2013-07-27 12:45:00,
2013-07-27 07:55:00,58.3,52.5,29.98,NW,305,3.0,4.0,81,0.00,,,0.00,Wunderground v.1.15,2013-07-27 12:55:00,
2013-07-27 08:05:00,58.7,52.9,29.98,NW,315,3.0,3.0,81,0.00,,,0.00,Wunderground v.1.15,2013-07-27 13:05:00,
2013-07-27 08:15:00,59.2,53.4,29.98,NW,315,2.0,4.0,81,0.00,,,0.00,Wunderground v.1.15,2013-07-27 13:15:00,
2013-07-27 08:25:00,59.6,53.8,29.98,NW,319,3.0,4.0,81,0.00,,,0.00,Wunderground v.1.15,2013-07-27 13:25:00,
2013-07-27 08:30:00,59.8,54.0,29.99,NW,320,3.0,3.0,81,0.00,,,0.00,Wunderground v.1.15,2013-07-27 13:30:00,
2013-07-27 08:40:00,60.5,54.6,29.99,WNW,294,2.0,2.0,81,0.00,,,0.00,Wunderground v.1.15,2013-07-27 13:40:00,
2013-07-27 08:50:00,61.2,55.3,29.99,WNW,296,1.0,1.0,81,0.00,,,0.00,Wunderground v.1.15,2013-07-27 13:50:00,
2013-07-27 09:00:00,61.8,55.6,29.98,WNW,294,1.0,1.0,80,0.00,,,0.00,Wunderground v.1.15,2013-07-27 14:00:00,
2013-07-27 09:05:00,62.0,56.1,29.98,WNW,292,1.0,1.0,81,0.00,,,0.00,Wunderground v.1.15,2013-07-27 14:05:00,
2013-07-27 09:15:00,62.3,56.0,29.98,WNW,289,1.0,2.0,80,0.00,,,0.00,Wunderground v.1.15,2013-07-27 14:15:00,
2013-07-27 09:25:00,62.7,56.4,29.98,WNW,292,1.0,2.0,80,0.00,,,0.00,Wunderground v.1.15,2013-07-27 14:25:00,
2013-07-27 09:30:00,63.1,56.8,29.98,NNW,343,2.0,2.0,80,0.00,,,0.00,Wunderground v.1.15,2013-07-27 14:30:00,
2013-07-27 09:40:00,63.7,57.4,29.98,NNW,347,1.0,4.0,80,0.00,,,0.00,Wunderground v.1.15,2013-07-27 14:40:00,
2013-07-27 09:50:00,64.5,57.8,29.98,NNE,14,3.0,4.0,79,0.00,,,0.00,Wunderground v.1.15,2013-07-27 14:50:00,
2013-07-27 10:00:00,65.0,58.3,29.97,North,0,4.0,4.0,79,0.00,,,0.00,Wunderground v.1.15,2013-07-27 15:00:00,
2013-07-27 10:10:00,65.3,58.3,29.97,NNE,18,5.0,5.0,78,0.00,,,0.00,Wunderground v.1.15,2013-07-27 15:10:00,
2013-07-27 10:15:00,65.6,58.6,29.97,NNW,339,5.0,5.0,78,0.00,,,0.00,Wunderground v.1.15,2013-07-27 15:15:00,
2013-07-27 10:25:00,66.3,59.2,29.97,WNW,301,6.0,7.0,78,0.00,,,0.00,Wunderground v.1.15,2013-07-27 15:25:00,
2013-07-27 10:35:00,66.8,59.4,29.97,NW,320,5.0,6.0,77,0.00,,,0.00,Wunderground v.1.15,2013-07-27 15:35:00,
2013-07-27 10:45:00,67.4,59.6,29.96,NNE,30,6.0,8.0,76,0.00,,,0.00,Wunderground v.1.15,2013-07-27 15:45:00,
2013-07-27 10:50:00,67.3,59.1,29.96,NW,306,6.0,7.0,75,0.00,,,0.00,Wunderground v.1.15,2013-07-27 15:50:00,
2013-07-27 11:00:00,67.4,59.2,29.96,North,3,6.0,9.0,75,0.00,,,0.00,Wunderground v.1.15,2013-07-27 16:00:00,
2013-07-27 11:05:00,67.6,59.4,29.96,NNW,329,6.0,9.0,75,0.00,,,0.00,Wunderground v.1.15,2013-07-27 16:05:00,
2013-07-27 11:15:00,68.3,59.7,29.96,NNE,16,6.0,7.0,74,0.00,,,0.00,Wunderground v.1.15,2013-07-27 16:15:00,
2013-07-27 11:25:00,68.6,59.6,29.96,NW,320,7.0,7.0,73,0.00,,,0.00,Wunderground v.1.15,2013-07-27 16:25:00,
2013-07-27 11:30:00,68.4,59.0,29.96,NNE,30,7.0,8.0,72,0.00,,,0.00,Wunderground v.1.15,2013-07-27 16:30:00,
2013-07-27 11:40:00,68.6,59.2,29.96,North,3,5.0,5.0,72,0.00,,,0.00,Wunderground v.1.15,2013-07-27 16:40:00,
2013-07-27 11:50:00,69.1,59.3,29.95,NW,323,6.0,6.0,71,0.00,,,0.00,Wunderground v.1.15,2013-07-27 16:50:00,
2013-07-27 11:55:00,69.3,59.5,29.95,NW,311,7.0,16.0,71,0.00,,,0.00,Wunderground v.1.15,2013-07-27 16:55:00,
2013-07-27 12:05:00,69.1,58.9,29.95,North,359,8.0,10.0,70,0.00,,,0.00,Wunderground v.1.15,2013-07-27 17:05:00,
2013-07-27 12:10:00,68.9,58.3,29.95,NW,322,8.0,8.0,69,0.00,,,0.00,Wunderground v.1.15,2013-07-27 17:10:00,
2013-07-27 12:20:00,68.9,58.3,29.95,NW,318,7.0,7.0,69,0.00,,,0.00,Wunderground v.1.15,2013-07-27 17:20:00,
2013-07-27 12:30:00,69.4,58.4,29.94,North,353,8.0,8.0,68,0.00,,,0.00,Wunderground v.1.15,2013-07-27 17:30:00,
2013-07-27 12:35:00,69.9,58.4,29.94,NNW,343,8.0,8.0,67,0.00,,,0.00,Wunderground v.1.15,2013-07-27 17:35:00,
2013-07-27 12:45:00,69.8,57.9,29.94,NNW,339,7.0,10.0,66,0.00,,,0.00,Wunderground v.1.15,2013-07-27 17:45:00,
2013-07-27 12:50:00,69.9,57.6,29.94,North,354,7.0,7.0,65,0.00,,,0.00,Wunderground v.1.15,2013-07-27 17:50:00,
2013-07-27 13:00:00,69.9,57.6,29.93,WNW,302,7.0,9.0,65,0.00,,,0.00,Wunderground v.1.15,2013-07-27 18:00:00,
2013-07-27 13:10:00,70.3,57.5,29.93,North,11,8.0,8.0,64,0.00,,,0.00,Wunderground v.1.15,2013-07-27 18:10:00,
2013-07-27 13:15:00,70.6,56.9,29.93,NNE,28,8.0,11.0,62,0.00,,,0.00,Wunderground v.1.15,2013-07-27 18:15:00,
2013-07-27 13:25:00,70.4,56.8,29.93,North,8,8.0,9.0,62,0.00,,,0.00,Wunderground v.1.15,2013-07-27 18:25:00,
2013-07-27 13:35:00,70.9,56.3,29.93,WNW,289,7.0,9.0,60,0.00,,,0.00,Wunderground v.1.15,2013-07-27 18:35:00,
2013-07-27 13:40:00,70.9,56.3,29.93,NW,308,9.0,9.0,60,0.00,,,0.00,Wunderground v.1.15,2013-07-27 18:40:00,
2013-07-27 13:50:00,71.5,56.4,29.92,North,0,7.0,9.0,59,0.00,,,0.00,Wunderground v.1.15,2013-07-27 18:50:00,
2013-07-27 14:00:00,71.1,55.1,29.92,North,349,9.0,9.0,57,0.00,,,0.00,Wunderground v.1.15,2013-07-27 19:00:00,
2013-07-27 14:05:00,71.3,55.3,29.92,WNW,302,7.0,9.0,57,0.00,,,0.00,Wunderground v.1.15,2013-07-27 19:05:00,
2013-07-27 14:15:00,71.6,55.1,29.92,North,350,8.0,10.0,56,0.00,,,0.00,Wunderground v.1.15,2013-07-27 19:15:00,
2013-07-27 14:25:00,71.6,54.6,29.92,North,352,7.0,8.0,55,0.00,,,0.00,Wunderground v.1.15,2013-07-27 19:25:00,
2013-07-27 14:30:00,71.8,54.8,29.92,North,359,8.0,8.0,55,0.00,,,0.00,Wunderground v.1.15,2013-07-27 19:30:00,
2013-07-27 14:40:00,72.5,54.9,29.92,NNE,20,7.0,7.0,54,0.00,,,0.00,Wunderground v.1.15,2013-07-27 19:40:00,
2013-07-27 14:50:00,72.3,53.7,29.91,North,8,8.0,8.0,52,0.00,,,0.00,Wunderground v.1.15,2013-07-27 19:50:00,
2013-07-27 14:55:00,72.3,53.7,29.91,North,359,9.0,17.0,52,0.00,,,0.00,Wunderground v.1.15,2013-07-27 19:55:00,
2013-07-27 15:05:00,72.0,52.9,29.91,North,1,9.0,9.0,51,0.00,,,0.00,Wunderground v.1.15,2013-07-27 20:05:00,
2013-07-27 15:15:00,72.0,52.9,29.91,NNE,31,5.0,7.0,51,0.00,,,0.00,Wunderground v.1.15,2013-07-27 20:15:00,
2013-07-27 15:25:00,72.7,53.0,29.91,North,349,7.0,7.0,50,0.00,,,0.00,Wunderground v.1.15,2013-07-27 20:25:00,
2013-07-27 15:30:00,72.8,53.1,29.91,NNW,333,7.0,7.0,50,0.00,,,0.00,Wunderground v.1.15,2013-07-27 20:30:00,
2013-07-27 15:35:00,72.7,52.4,29.91,NNW,336,7.0,7.0,49,0.00,,,0.00,Wunderground v.1.15,2013-07-27 20:35:00,
2013-07-27 15:45:00,72.8,52.0,29.90,North,356,7.0,9.0,48,0.00,,,0.00,Wunderground v.1.15,2013-07-27 20:45:00,
2013-07-27 15:55:00,72.5,51.7,29.90,NNE,30,7.0,10.0,48,0.00,,,0.00,Wunderground v.1.15,2013-07-27 20:55:00,
2013-07-27 16:05:00,72.5,51.7,29.90,WNW,298,8.0,8.0,48,0.00,,,0.00,Wunderground v.1.15,2013-07-27 21:05:00,
2013-07-27 16:10:00,72.5,51.1,29.90,NW,311,7.0,9.0,47,0.00,,,0.00,Wunderground v.1.15,2013-07-27 21:10:00,
2013-07-27 16:20:00,72.8,51.4,29.89,NNW,329,7.0,7.0,47,0.00,,,0.00,Wunderground v.1.15,2013-07-27 21:20:00,
2013-07-27 16:30:00,73.0,51.0,29.89,NNW,347,6.0,6.0,46,0.00,,,0.00,Wunderground v.1.15,2013-07-27 21:30:00,
2013-07-27 16:40:00,73.0,51.0,29.89,NW,323,6.0,6.0,46,0.00,,,0.00,Wunderground v.1.15,2013-07-27 21:40:00,
2013-07-27 16:45:00,73.0,51.0,29.88,NW,311,6.0,10.0,46,0.00,,,0.00,Wunderground v.1.15,2013-07-27 21:45:00,
2013-07-27 16:55:00,73.0,50.4,29.88,NNE,31,7.0,7.0,45,0.00,,,0.00,Wunderground v.1.15,2013-07-27 21:55:00,
2013-07-27 17:05:00,73.0,50.4,29.89,NW,304,6.0,6.0,45,0.00,,,0.00,Wunderground v.1.15,2013-07-27 22:05:00,
2013-07-27 17:10:00,73.2,50.6,29.89,NW,312,5.0,11.0,45,0.00,,,0.00,Wunderground v.1.15,2013-07-27 22:10:00,
2013-07-27 17:20:00,73.3,50.7,29.88,West,277,5.0,5.0,45,0.00,,,0.00,Wunderground v.1.15,2013-07-27 22:20:00,
2013-07-27 17:30:00,73.3,50.1,29.87,NNW,329,5.0,5.0,44,0.00,,,0.00,Wunderground v.1.15,2013-07-27 22:30:00,
2013-07-27 17:40:00,73.2,49.4,29.87,NNE,16,6.0,6.0,43,0.00,,,0.00,Wunderground v.1.15,2013-07-27 22:40:00,
2013-07-27 17:50:00,73.3,49.4,29.87,NNW,330,6.0,6.0,43,0.00,,,0.00,Wunderground v.1.15,2013-07-27 22:50:00,
2013-07-27 18:00:00,73.2,48.7,29.87,NW,326,6.0,6.0,42,0.00,,,0.00,Wunderground v.1.15,2013-07-27 23:00:00,
2013-07-27 18:05:00,73.0,48.5,29.87,North,0,5.0,6.0,42,0.00,,,0.00,Wunderground v.1.15,2013-07-27 23:05:00,
2013-07-27 18:15:00,73.3,48.8,29.87,NW,316,4.0,6.0,42,0.00,,,0.00,Wunderground v.1.15,2013-07-27 23:15:00,
2013-07-27 18:25:00,72.8,48.4,29.87,North,354,6.0,7.0,42,0.00,,,0.00,Wunderground v.1.15,2013-07-27 23:25:00,
2013-07-27 18:30:00,72.7,48.3,29.86,NNE,18,5.0,5.0,42,0.00,,,0.00,Wunderground v.1.15,2013-07-27 23:30:00,
2013-07-27 18:40:00,73.0,48.5,29.86,NNE,20,5.0,7.0,42,0.00,,,0.00,Wunderground v.1.15,2013-07-27 23:40:00,
2013-07-27 18:50:00,72.7,47.6,29.86,NNE,23,7.0,7.0,41,0.00,,,0.00,Wunderground v.1.15,2013-07-27 23:50:00,
2013-07-27 19:00:00,72.3,47.3,29.86,NNE,13,3.0,3.0,41,0.00,,,0.00,Wunderground v.1.15,2013-07-28 00:00:00,
2013-07-27 19:05:00,72.1,47.7,29.86,NNE,18,4.0,4.0,42,0.00,,,0.00,Wunderground v.1.15,2013-07-28 00:05:00,
2013-07-27 19:15:00,72.0,47.6,29.86,NNE,14,3.0,4.0,42,0.00,,,0.00,Wunderground v.1.15,2013-07-28 00:15:00,
2013-07-27 19:25:00,72.1,47.7,29.86,North,10,1.0,2.0,42,0.00,,,0.00,Wunderground v.1.15,2013-07-28 00:25:00,
2013-07-27 19:35:00,72.3,47.9,29.86,North,8,1.0,1.0,42,0.00,,,0.00,Wunderground v.1.15,2013-07-28 00:35:00,
2013-07-27 19:40:00,72.5,48.1,29.86,North,8,1.0,1.0,42,0.00,,,0.00,Wunderground v.1.15,2013-07-28 00:40:00,
2013-07-27 19:50:00,72.0,48.3,29.86,North,10,1.0,1.0,43,0.00,,,0.00,Wunderground v.1.15,2013-07-28 00:50:00,
2013-07-27 19:55:00,71.5,47.8,29.86,North,10,1.0,1.0,43,0.00,,,0.00,Wunderground v.1.15,2013-07-28 00:55:00,
2013-07-27 20:05:00,70.8,47.8,29.87,North,10,1.0,1.0,44,0.00,,,0.00,Wunderground v.1.15,2013-07-28 01:05:00,
2013-07-27 20:15:00,70.8,48.4,29.87,North,10,0.0,0.0,45,0.00,,,0.00,Wunderground v.1.15,2013-07-28 01:15:00,
2013-07-27 20:25:00,70.3,47.9,29.87,North,10,0.0,0.0,45,0.00,,,0.00,Wunderground v.1.15,2013-07-28 01:25:00,
2013-07-27 20:30:00,69.8,47.5,29.87,North,10,0.0,0.0,45,0.00,,,0.00,Wunderground v.1.15,2013-07-28 01:30:00,
2013-07-27 20:40:00,68.8,47.2,29.87,North,10,0.0,0.0,46,0.00,,,0.00,Wunderground v.1.15,2013-07-28 01:40:00,
2013-07-27 20:45:00,68.1,47.1,29.87,North,10,0.0,0.0,47,0.00,,,0.00,Wunderground v.1.15,2013-07-28 01:45:00,
2013-07-27 20:55:00,67.4,46.5,29.87,North,10,0.0,0.0,47,0.00,,,0.00,Wunderground v.1.15,2013-07-28 01:55:00,
2013-07-27 21:05:00,66.8,46.5,29.87,North,10,0.0,0.0,48,0.00,,,0.00,Wunderground v.1.15,2013-07-28 02:05:00,
2013-07-27 21:10:00,66.4,46.7,29.87,North,10,0.0,0.0,49,0.00,,,0.00,Wunderground v.1.15,2013-07-28 02:10:00,
2013-07-27 21:20:00,65.6,46.5,29.88,North,10,0.0,0.0,50,0.00,,,0.00,Wunderground v.1.15,2013-07-28 02:20:00,
2013-07-27 21:30:00,65.3,46.7,29.88,North,10,0.0,0.0,51,0.00,,,0.00,Wunderground v.1.15,2013-07-28 02:30:00,
2013-07-27 21:35:00,65.2,46.6,29.88,North,10,0.0,0.0,51,0.00,,,0.00,Wunderground v.1.15,2013-07-28 02:35:00,
2013-07-27 21:45:00,64.7,46.1,29.87,North,11,1.0,2.0,51,0.00,,,0.00,Wunderground v.1.15,2013-07-28 02:45:00,
2013-07-27 21:55:00,64.2,46.2,29.87,NNE,20,1.0,2.0,52,0.00,,,0.00,Wunderground v.1.15,2013-07-28 02:55:00,
2013-07-27 22:00:00,64.0,46.0,29.88,NNE,18,1.0,1.0,52,0.00,,,0.00,Wunderground v.1.15,2013-07-28 03:00:00,
2013-07-27 22:10:00,63.7,45.7,29.88,NNE,20,1.0,1.0,52,0.00,,,0.00,Wunderground v.1.15,2013-07-28 03:10:00,
2013-07-27 22:20:00,63.4,46.0,29.88,NNE,20,0.0,0.0,53,0.00,,,0.00,Wunderground v.1.15,2013-07-28 03:20:00,
2013-07-27 22:25:00,63.4,46.0,29.88,NNE,20,0.0,0.0,53,0.00,,,0.00,Wunderground v.1.15,2013-07-28 03:25:00,
2013-07-27 22:35:00,62.9,46.0,29.89,NNE,20,0.0,0.0,54,0.00,,,0.00,Wunderground v.1.15,2013-07-28 03:35:00,
2013-07-27 22:45:00,62.1,45.2,29.89,NNE,20,0.0,0.0,54,0.00,,,0.00,Wunderground v.1.15,2013-07-28 03:45:00,
2013-07-27 22:50:00,61.8,45.5,29.89,NNE,20,0.0,0.0,55,0.00,,,0.00,Wunderground v.1.15,2013-07-28 03:50:00,
2013-07-27 23:00:00,61.2,44.9,29.89,NNE,20,0.0,0.0,55,0.00,,,0.00,Wunderground v.1.15,2013-07-28 04:00:00,
2013-07-27 23:05:00,61.0,44.7,29.89,NNE,20,0.0,0.0,55,0.00,,,0.00,Wunderground v.1.15,2013-07-28 04:05:00,
2013-07-27 23:10:00,60.9,44.6,29.89,NNE,20,0.0,0.0,55,0.00,,,0.00,Wunderground v.1.15,2013-07-28 04:10:00,
2013-07-27 23:15:00,60.7,44.4,29.89,NNE,20,0.0,0.0,55,0.00,,,0.00,Wunderground v.1.15,2013-07-28 04:15:00,
2013-07-27 23:25:00,60.5,44.2,29.89,NNE,20,0.0,0.0,55,0.00,,,0.00,Wunderground v.1.15,2013-07-28 04:25:00,
2013-07-27 23:30:00,60.7,44.4,29.90,NNE,20,0.0,0.0,55,0.00,,,0.00,Wunderground v.1.15,2013-07-28 04:30:00,
2013-07-27 23:40:00,60.4,44.6,29.90,NNE,20,0.0,0.0,56,0.00,,,0.00,Wunderground v.1.15,2013-07-28 04:40:00,
2013-07-27 23:50:00,60.1,44.8,29.90,ENE,58,0.0,2.0,57,0.00,,,0.00,Wunderground v.1.15,2013-07-28 04:50:00,